Terminal Aerodrome Forecast
Issued by NWS Wilmington, OH

Current Version | Previous Version | Text Only | Print | Product List | Glossary Off
Versions: 1 2 3 4 5 6 7 8 9 10 11 12 13 14 15 16 17 18 19 20

000
FTUS41 KILN 292320
TAFCMH
TAF
KCMH 292320Z 3000/3024 21008KT P6SM VCSH SCT040 BKN100
     FM300300 17004KT P6SM VCSH SCT040 BKN150
      TEMPO 3009/3012 5SM BR
     FM301400 21006KT P6SM BKN040
     FM301900 21008KT P6SM VCSH BKN040=

USA.gov is the U.S. government's official web portal to all federal, state and local government web resources and services.